sensor_id;sensor_type;location;lat;lon;timestamp;P1;durP1;ratioP1;P2;durP2;ratioP2
81223;SDS011;70698;44.402;18.522;2024-01-30T00:02:21;499.50;;;156.85;;
81223;SDS011;70698;44.402;18.522;2024-01-30T00:04:47;201.80;;;64.28;;
81223;SDS011;70698;44.402;18.522;2024-01-30T00:07:12;197.63;;;57.78;;
81223;SDS011;70698;44.402;18.522;2024-01-30T00:09:38;223.45;;;64.65;;
81223;SDS011;70698;44.402;18.522;2024-01-30T00:12:05;282.27;;;80.20;;
81223;SDS011;70698;44.402;18.522;2024-01-30T00:14:31;262.38;;;75.88;;
81223;SDS011;70698;44.402;18.522;2024-01-30T00:16:57;236.98;;;68.68;;
81223;SDS011;70698;44.402;18.522;2024-01-30T00:19:22;207.05;;;64.75;;
81223;SDS011;70698;44.402;18.522;2024-01-30T00:21:48;245.07;;;74.93;;
81223;SDS011;70698;44.402;18.522;2024-01-30T00:24:14;294.73;;;98.72;;
81223;SDS011;70698;44.402;18.522;2024-01-30T00:26:39;337.02;;;112.85;;
81223;SDS011;70698;44.402;18.522;2024-01-30T00:29:05;386.10;;;124.85;;
81223;SDS011;70698;44.402;18.522;2024-01-30T00:31:31;578.92;;;190.38;;
81223;SDS011;70698;44.402;18.522;2024-01-30T00:33:57;633.63;;;214.60;;
81223;SDS011;70698;44.402;18.522;2024-01-30T00:36:22;506.35;;;148.20;;
81223;SDS011;70698;44.402;18.522;2024-01-30T00:38:48;544.30;;;165.93;;
81223;SDS011;70698;44.402;18.522;2024-01-30T00:41:13;537.97;;;171.48;;
81223;SDS011;70698;44.402;18.522;2024-01-30T00:43:39;573.45;;;192.70;;
81223;SDS011;70698;44.402;18.522;2024-01-30T00:46:05;549.47;;;183.05;;
81223;SDS011;70698;44.402;18.522;2024-01-30T00:48:30;565.45;;;187.68;;
81223;SDS011;70698;44.402;18.522;2024-01-30T00:50:56;595.55;;;196.25;;
81223;SDS011;70698;44.402;18.522;2024-01-30T00:53:22;523.72;;;167.50;;
81223;SDS011;70698;44.402;18.522;2024-01-30T00:55:47;519.38;;;165.30;;
81223;SDS011;70698;44.402;18.522;2024-01-30T00:58:13;397.10;;;117.38;;
81223;SDS011;70698;44.402;18.522;2024-01-30T01:00:40;325.52;;;100.72;;
81223;SDS011;70698;44.402;18.522;2024-01-30T01:03:05;247.18;;;77.07;;
81223;SDS011;70698;44.402;18.522;2024-01-30T01:05:31;241.10;;;75.68;;
81223;SDS011;70698;44.402;18.522;2024-01-30T01:07:57;214.75;;;70.18;;
81223;SDS011;70698;44.402;18.522;2024-01-30T01:10:22;200.20;;;68.82;;
81223;SDS011;70698;44.402;18.522;2024-01-30T01:12:48;201.43;;;65.80;;
81223;SDS011;70698;44.402;18.522;2024-01-30T01:15:14;208.40;;;70.38;;
81223;SDS011;70698;44.402;18.522;2024-01-30T01:17:40;323.00;;;117.60;;
81223;SDS011;70698;44.402;18.522;2024-01-30T01:20:06;284.98;;;101.32;;
81223;SDS011;70698;44.402;18.522;2024-01-30T01:22:33;301.60;;;109.40;;
81223;SDS011;70698;44.402;18.522;2024-01-30T01:24:59;325.45;;;111.43;;
81223;SDS011;70698;44.402;18.522;2024-01-30T01:27:26;248.10;;;87.72;;
81223;SDS011;70698;44.402;18.522;2024-01-30T01:29:52;194.68;;;69.28;;
81223;SDS011;70698;44.402;18.522;2024-01-30T01:32:18;200.80;;;69.10;;
81223;SDS011;70698;44.402;18.522;2024-01-30T01:34:43;190.52;;;63.80;;
81223;SDS011;70698;44.402;18.522;2024-01-30T01:37:09;246.07;;;82.50;;
81223;SDS011;70698;44.402;18.522;2024-01-30T01:39:35;246.55;;;84.70;;
81223;SDS011;70698;44.402;18.522;2024-01-30T01:42:01;249.57;;;83.32;;
81223;SDS011;70698;44.402;18.522;2024-01-30T01:44:27;241.35;;;83.72;;
81223;SDS011;70698;44.402;18.522;2024-01-30T01:46:54;213.32;;;70.72;;
81223;SDS011;70698;44.402;18.522;2024-01-30T01:49:19;189.02;;;63.10;;
81223;SDS011;70698;44.402;18.522;2024-01-30T01:51:55;180.38;;;62.85;;
81223;SDS011;70698;44.402;18.522;2024-01-30T01:54:22;122.38;;;44.35;;
81223;SDS011;70698;44.402;18.522;2024-01-30T01:56:49;114.88;;;44.05;;
81223;SDS011;70698;44.402;18.522;2024-01-30T01:59:16;117.63;;;42.08;;
81223;SDS011;70698;44.402;18.522;2024-01-30T02:01:43;108.30;;;40.42;;
81223;SDS011;70698;44.402;18.522;2024-01-30T02:04:10;120.03;;;43.17;;
81223;SDS011;70698;44.402;18.522;2024-01-30T02:06:36;151.23;;;51.78;;
81223;SDS011;70698;44.402;18.522;2024-01-30T02:09:03;127.53;;;46.92;;
81223;SDS011;70698;44.402;18.522;2024-01-30T02:11:29;89.15;;;35.45;;
81223;SDS011;70698;44.402;18.522;2024-01-30T02:13:55;101.07;;;39.95;;
81223;SDS011;70698;44.402;18.522;2024-01-30T02:16:21;96.15;;;37.80;;
81223;SDS011;70698;44.402;18.522;2024-01-30T02:18:47;101.97;;;39.15;;
81223;SDS011;70698;44.402;18.522;2024-01-30T02:21:16;91.68;;;35.53;;
81223;SDS011;70698;44.402;18.522;2024-01-30T02:23:43;91.40;;;36.45;;
81223;SDS011;70698;44.402;18.522;2024-01-30T02:26:11;97.35;;;37.65;;
81223;SDS011;70698;44.402;18.522;2024-01-30T02:28:37;101.97;;;39.83;;
81223;SDS011;70698;44.402;18.522;2024-01-30T02:31:03;122.53;;;48.35;;
81223;SDS011;70698;44.402;18.522;2024-01-30T02:33:29;161.65;;;58.22;;
81223;SDS011;70698;44.402;18.522;2024-01-30T02:35:55;154.23;;;58.42;;
81223;SDS011;70698;44.402;18.522;2024-01-30T02:38:21;140.35;;;51.65;;
81223;SDS011;70698;44.402;18.522;2024-01-30T02:40:46;108.28;;;42.53;;
81223;SDS011;70698;44.402;18.522;2024-01-30T02:43:12;100.53;;;40.00;;
81223;SDS011;70698;44.402;18.522;2024-01-30T02:45:37;97.97;;;38.03;;
81223;SDS011;70698;44.402;18.522;2024-01-30T02:48:03;120.68;;;46.80;;
81223;SDS011;70698;44.402;18.522;2024-01-30T02:50:29;126.35;;;46.03;;
81223;SDS011;70698;44.402;18.522;2024-01-30T02:52:54;114.90;;;43.00;;
81223;SDS011;70698;44.402;18.522;2024-01-30T02:55:20;111.05;;;42.38;;
81223;SDS011;70698;44.402;18.522;2024-01-30T02:57:46;120.68;;;43.47;;
81223;SDS011;70698;44.402;18.522;2024-01-30T03:00:12;79.93;;;32.75;;
81223;SDS011;70698;44.402;18.522;2024-01-30T03:02:38;87.65;;;33.90;;
81223;SDS011;70698;44.402;18.522;2024-01-30T03:05:05;74.97;;;31.13;;
81223;SDS011;70698;44.402;18.522;2024-01-30T03:07:31;60.45;;;25.55;;
81223;SDS011;70698;44.402;18.522;2024-01-30T03:09:56;69.38;;;30.15;;
81223;SDS011;70698;44.402;18.522;2024-01-30T03:12:22;57.08;;;24.38;;
81223;SDS011;70698;44.402;18.522;2024-01-30T03:14:48;79.07;;;31.20;;
81223;SDS011;70698;44.402;18.522;2024-01-30T03:17:14;61.13;;;25.67;;
81223;SDS011;70698;44.402;18.522;2024-01-30T03:19:40;55.83;;;22.42;;
81223;SDS011;70698;44.402;18.522;2024-01-30T03:22:06;54.70;;;22.60;;
81223;SDS011;70698;44.402;18.522;2024-01-30T03:24:32;63.58;;;25.08;;
81223;SDS011;70698;44.402;18.522;2024-01-30T03:26:57;82.03;;;33.03;;
81223;SDS011;70698;44.402;18.522;2024-01-30T03:29:23;88.80;;;33.53;;
81223;SDS011;70698;44.402;18.522;2024-01-30T03:31:48;72.30;;;25.92;;
81223;SDS011;70698;44.402;18.522;2024-01-30T03:34:14;86.57;;;28.90;;
81223;SDS011;70698;44.402;18.522;2024-01-30T03:36:40;85.28;;;28.15;;
81223;SDS011;70698;44.402;18.522;2024-01-30T03:39:05;89.30;;;27.35;;
81223;SDS011;70698;44.402;18.522;2024-01-30T03:41:31;74.68;;;28.27;;
81223;SDS011;70698;44.402;18.522;2024-01-30T03:43:57;78.32;;;27.92;;
81223;SDS011;70698;44.402;18.522;2024-01-30T03:46:23;97.05;;;33.25;;
81223;SDS011;70698;44.402;18.522;2024-01-30T03:48:48;111.53;;;34.72;;
81223;SDS011;70698;44.402;18.522;2024-01-30T03:51:14;114.72;;;40.08;;
81223;SDS011;70698;44.402;18.522;2024-01-30T03:53:44;106.90;;;44.92;;
81223;SDS011;70698;44.402;18.522;2024-01-30T03:56:13;118.40;;;47.30;;
81223;SDS011;70698;44.402;18.522;2024-01-30T03:58:39;115.70;;;45.10;;
81223;SDS011;70698;44.402;18.522;2024-01-30T04:01:05;110.22;;;46.90;;
81223;SDS011;70698;44.402;18.522;2024-01-30T04:03:30;116.28;;;47.22;;
81223;SDS011;70698;44.402;18.522;2024-01-30T04:05:56;123.03;;;48.53;;
81223;SDS011;70698;44.402;18.522;2024-01-30T04:08:22;113.85;;;46.67;;
81223;SDS011;70698;44.402;18.522;2024-01-30T04:10:47;109.78;;;45.67;;
81223;SDS011;70698;44.402;18.522;2024-01-30T04:13:13;114.40;;;39.85;;
81223;SDS011;70698;44.402;18.522;2024-01-30T04:15:39;108.22;;;37.55;;
81223;SDS011;70698;44.402;18.522;2024-01-30T04:18:05;108.00;;;37.90;;
81223;SDS011;70698;44.402;18.522;2024-01-30T04:20:31;108.05;;;40.15;;
81223;SDS011;70698;44.402;18.522;2024-01-30T04:22:56;105.40;;;40.42;;
81223;SDS011;70698;44.402;18.522;2024-01-30T04:25:22;84.57;;;33.60;;
81223;SDS011;70698;44.402;18.522;2024-01-30T04:27:48;98.13;;;37.75;;
81223;SDS011;70698;44.402;18.522;2024-01-30T04:30:13;86.03;;;35.75;;
81223;SDS011;70698;44.402;18.522;2024-01-30T04:32:39;82.95;;;34.42;;
81223;SDS011;70698;44.402;18.522;2024-01-30T04:35:05;47.45;;;20.10;;
81223;SDS011;70698;44.402;18.522;2024-01-30T04:37:31;50.05;;;21.40;;
81223;SDS011;70698;44.402;18.522;2024-01-30T04:39:57;55.75;;;22.98;;
81223;SDS011;70698;44.402;18.522;2024-01-30T04:42:22;40.03;;;19.45;;
81223;SDS011;70698;44.402;18.522;2024-01-30T04:44:48;32.85;;;16.02;;
81223;SDS011;70698;44.402;18.522;2024-01-30T04:47:13;44.63;;;19.88;;
81223;SDS011;70698;44.402;18.522;2024-01-30T04:49:39;50.75;;;22.55;;
81223;SDS011;70698;44.402;18.522;2024-01-30T04:52:05;65.70;;;28.83;;
81223;SDS011;70698;44.402;18.522;2024-01-30T04:54:31;65.38;;;27.90;;
81223;SDS011;70698;44.402;18.522;2024-01-30T04:56:57;84.63;;;33.72;;
81223;SDS011;70698;44.402;18.522;2024-01-30T04:59:23;84.97;;;36.22;;
81223;SDS011;70698;44.402;18.522;2024-01-30T05:01:49;96.38;;;37.35;;
81223;SDS011;70698;44.402;18.522;2024-01-30T05:04:15;105.63;;;40.85;;
81223;SDS011;70698;44.402;18.522;2024-01-30T05:06:40;118.47;;;42.00;;
81223;SDS011;70698;44.402;18.522;2024-01-30T05:09:06;50.67;;;21.77;;
81223;SDS011;70698;44.402;18.522;2024-01-30T05:11:41;79.55;;;32.00;;
81223;SDS011;70698;44.402;18.522;2024-01-30T05:14:07;102.85;;;39.90;;
81223;SDS011;70698;44.402;18.522;2024-01-30T05:16:37;52.42;;;21.38;;
81223;SDS011;70698;44.402;18.522;2024-01-30T05:19:02;51.00;;;21.92;;
81223;SDS011;70698;44.402;18.522;2024-01-30T05:21:28;66.03;;;25.63;;
81223;SDS011;70698;44.402;18.522;2024-01-30T05:23:54;107.25;;;38.15;;
81223;SDS011;70698;44.402;18.522;2024-01-30T05:26:19;273.80;;;89.90;;
81223;SDS011;70698;44.402;18.522;2024-01-30T05:28:45;373.42;;;132.73;;
81223;SDS011;70698;44.402;18.522;2024-01-30T05:31:11;374.90;;;142.63;;
81223;SDS011;70698;44.402;18.522;2024-01-30T05:33:36;351.73;;;126.95;;
81223;SDS011;70698;44.402;18.522;2024-01-30T05:36:02;215.52;;;76.00;;
81223;SDS011;70698;44.402;18.522;2024-01-30T05:38:28;219.90;;;79.60;;
81223;SDS011;70698;44.402;18.522;2024-01-30T05:40:54;262.77;;;76.30;;
81223;SDS011;70698;44.402;18.522;2024-01-30T05:43:20;234.60;;;70.43;;
81223;SDS011;70698;44.402;18.522;2024-01-30T05:45:46;242.65;;;69.80;;
81223;SDS011;70698;44.402;18.522;2024-01-30T05:48:11;227.43;;;66.53;;
81223;SDS011;70698;44.402;18.522;2024-01-30T05:50:37;253.10;;;65.40;;
81223;SDS011;70698;44.402;18.522;2024-01-30T05:53:02;251.05;;;70.70;;
81223;SDS011;70698;44.402;18.522;2024-01-30T05:55:28;208.43;;;60.80;;
81223;SDS011;70698;44.402;18.522;2024-01-30T05:57:54;186.25;;;51.17;;
81223;SDS011;70698;44.402;18.522;2024-01-30T06:00:19;190.55;;;52.13;;
81223;SDS011;70698;44.402;18.522;2024-01-30T06:02:45;158.50;;;46.72;;
81223;SDS011;70698;44.402;18.522;2024-01-30T06:05:11;169.52;;;51.67;;
81223;SDS011;70698;44.402;18.522;2024-01-30T06:07:36;200.48;;;60.85;;
81223;SDS011;70698;44.402;18.522;2024-01-30T06:10:02;105.75;;;37.13;;
81223;SDS011;70698;44.402;18.522;2024-01-30T06:12:28;115.65;;;38.17;;
81223;SDS011;70698;44.402;18.522;2024-01-30T06:14:54;208.70;;;60.75;;
81223;SDS011;70698;44.402;18.522;2024-01-30T06:17:22;349.48;;;105.80;;
81223;SDS011;70698;44.402;18.522;2024-01-30T06:19:48;432.33;;;134.45;;
81223;SDS011;70698;44.402;18.522;2024-01-30T06:22:14;132.43;;;47.55;;
81223;SDS011;70698;44.402;18.522;2024-01-30T06:24:40;113.00;;;43.17;;
81223;SDS011;70698;44.402;18.522;2024-01-30T06:27:05;123.45;;;46.00;;
81223;SDS011;70698;44.402;18.522;2024-01-30T06:29:31;186.95;;;68.45;;
81223;SDS011;70698;44.402;18.522;2024-01-30T06:31:56;345.30;;;111.68;;
81223;SDS011;70698;44.402;18.522;2024-01-30T06:34:22;252.02;;;89.63;;
81223;SDS011;70698;44.402;18.522;2024-01-30T06:36:48;210.40;;;70.45;;
81223;SDS011;70698;44.402;18.522;2024-01-30T06:39:13;189.98;;;71.05;;
81223;SDS011;70698;44.402;18.522;2024-01-30T06:41:39;218.30;;;80.25;;
81223;SDS011;70698;44.402;18.522;2024-01-30T06:44:05;268.27;;;93.63;;
81223;SDS011;70698;44.402;18.522;2024-01-30T06:46:31;426.27;;;161.35;;
81223;SDS011;70698;44.402;18.522;2024-01-30T06:48:57;513.70;;;191.25;;
81223;SDS011;70698;44.402;18.522;2024-01-30T06:51:23;435.80;;;156.30;;
81223;SDS011;70698;44.402;18.522;2024-01-30T06:53:49;393.17;;;138.45;;
81223;SDS011;70698;44.402;18.522;2024-01-30T06:56:14;182.60;;;61.88;;
81223;SDS011;70698;44.402;18.522;2024-01-30T06:58:40;188.68;;;67.30;;
81223;SDS011;70698;44.402;18.522;2024-01-30T07:01:06;204.43;;;75.57;;
81223;SDS011;70698;44.402;18.522;2024-01-30T07:03:31;210.88;;;72.95;;
81223;SDS011;70698;44.402;18.522;2024-01-30T07:05:57;286.85;;;95.57;;
81223;SDS011;70698;44.402;18.522;2024-01-30T07:08:23;339.23;;;120.80;;
81223;SDS011;70698;44.402;18.522;2024-01-30T07:10:48;476.27;;;178.05;;
81223;SDS011;70698;44.402;18.522;2024-01-30T07:13:14;447.20;;;159.50;;
81223;SDS011;70698;44.402;18.522;2024-01-30T07:15:41;481.33;;;175.90;;
81223;SDS011;70698;44.402;18.522;2024-01-30T07:18:08;540.17;;;213.68;;
81223;SDS011;70698;44.402;18.522;2024-01-30T07:20:35;820.88;;;350.95;;
81223;SDS011;70698;44.402;18.522;2024-01-30T07:23:00;767.28;;;332.67;;
81223;SDS011;70698;44.402;18.522;2024-01-30T07:25:26;653.25;;;270.15;;
81223;SDS011;70698;44.402;18.522;2024-01-30T07:27:55;564.58;;;226.77;;
81223;SDS011;70698;44.402;18.522;2024-01-30T07:30:21;606.67;;;258.92;;
81223;SDS011;70698;44.402;18.522;2024-01-30T07:32:48;612.45;;;253.23;;
81223;SDS011;70698;44.402;18.522;2024-01-30T07:35:14;602.55;;;260.55;;
81223;SDS011;70698;44.402;18.522;2024-01-30T07:37:39;556.75;;;221.93;;
81223;SDS011;70698;44.402;18.522;2024-01-30T07:40:05;588.33;;;234.30;;
81223;SDS011;70698;44.402;18.522;2024-01-30T07:42:32;588.75;;;237.88;;
81223;SDS011;70698;44.402;18.522;2024-01-30T07:44:58;529.47;;;213.13;;
81223;SDS011;70698;44.402;18.522;2024-01-30T07:47:24;556.17;;;223.65;;
81223;SDS011;70698;44.402;18.522;2024-01-30T07:49:50;651.22;;;277.98;;
81223;SDS011;70698;44.402;18.522;2024-01-30T07:52:16;628.28;;;270.38;;
81223;SDS011;70698;44.402;18.522;2024-01-30T07:54:42;622.53;;;268.25;;
81223;SDS011;70698;44.402;18.522;2024-01-30T07:57:07;635.85;;;284.90;;
81223;SDS011;70698;44.402;18.522;2024-01-30T07:59:33;646.83;;;283.75;;
81223;SDS011;70698;44.402;18.522;2024-01-30T08:01:59;652.03;;;296.27;;
81223;SDS011;70698;44.402;18.522;2024-01-30T08:04:25;628.33;;;271.42;;
81223;SDS011;70698;44.402;18.522;2024-01-30T08:06:50;514.25;;;205.50;;
81223;SDS011;70698;44.402;18.522;2024-01-30T08:09:16;549.20;;;229.75;;
81223;SDS011;70698;44.402;18.522;2024-01-30T08:11:41;338.85;;;131.20;;
81223;SDS011;70698;44.402;18.522;2024-01-30T08:14:07;284.90;;;113.35;;
81223;SDS011;70698;44.402;18.522;2024-01-30T08:16:32;249.70;;;94.43;;
81223;SDS011;70698;44.402;18.522;2024-01-30T08:18:58;346.90;;;127.25;;
81223;SDS011;70698;44.402;18.522;2024-01-30T08:21:24;309.25;;;101.40;;
81223;SDS011;70698;44.402;18.522;2024-01-30T08:23:49;493.17;;;151.02;;
81223;SDS011;70698;44.402;18.522;2024-01-30T08:26:15;346.80;;;114.95;;
81223;SDS011;70698;44.402;18.522;2024-01-30T08:28:41;338.15;;;125.97;;
81223;SDS011;70698;44.402;18.522;2024-01-30T08:31:06;266.42;;;97.95;;
81223;SDS011;70698;44.402;18.522;2024-01-30T08:33:32;288.92;;;110.45;;
81223;SDS011;70698;44.402;18.522;2024-01-30T08:35:57;338.08;;;126.88;;
81223;SDS011;70698;44.402;18.522;2024-01-30T08:38:23;266.65;;;102.05;;
81223;SDS011;70698;44.402;18.522;2024-01-30T08:40:49;245.27;;;92.95;;
81223;SDS011;70698;44.402;18.522;2024-01-30T08:43:14;215.00;;;84.30;;
81223;SDS011;70698;44.402;18.522;2024-01-30T08:45:40;105.38;;;44.28;;
81223;SDS011;70698;44.402;18.522;2024-01-30T08:48:06;91.03;;;39.53;;
81223;SDS011;70698;44.402;18.522;2024-01-30T08:50:33;84.75;;;36.67;;
81223;SDS011;70698;44.402;18.522;2024-01-30T08:52:58;78.97;;;34.53;;
81223;SDS011;70698;44.402;18.522;2024-01-30T08:55:24;61.70;;;29.58;;
81223;SDS011;70698;44.402;18.522;2024-01-30T08:57:49;70.22;;;33.13;;
81223;SDS011;70698;44.402;18.522;2024-01-30T09:00:17;83.85;;;40.28;;
81223;SDS011;70698;44.402;18.522;2024-01-30T09:02:43;90.80;;;41.53;;
81223;SDS011;70698;44.402;18.522;2024-01-30T09:05:08;156.13;;;59.55;;
81223;SDS011;70698;44.402;18.522;2024-01-30T09:07:34;134.85;;;56.05;;
81223;SDS011;70698;44.402;18.522;2024-01-30T09:10:00;85.05;;;34.25;;
81223;SDS011;70698;44.402;18.522;2024-01-30T09:12:25;64.68;;;28.75;;
81223;SDS011;70698;44.402;18.522;2024-01-30T09:14:51;48.70;;;23.25;;
81223;SDS011;70698;44.402;18.522;2024-01-30T09:17:17;61.78;;;27.48;;
81223;SDS011;70698;44.402;18.522;2024-01-30T09:19:43;72.63;;;32.92;;
81223;SDS011;70698;44.402;18.522;2024-01-30T09:22:08;97.38;;;37.83;;
81223;SDS011;70698;44.402;18.522;2024-01-30T09:24:34;74.97;;;30.75;;
81223;SDS011;70698;44.402;18.522;2024-01-30T09:27:00;210.60;;;65.47;;
81223;SDS011;70698;44.402;18.522;2024-01-30T09:29:25;249.23;;;75.63;;
81223;SDS011;70698;44.402;18.522;2024-01-30T09:31:51;152.55;;;51.08;;
81223;SDS011;70698;44.402;18.522;2024-01-30T09:34:17;57.75;;;25.13;;
81223;SDS011;70698;44.402;18.522;2024-01-30T09:36:43;195.15;;;60.70;;
81223;SDS011;70698;44.402;18.522;2024-01-30T09:39:09;125.60;;;44.70;;
81223;SDS011;70698;44.402;18.522;2024-01-30T09:41:37;283.52;;;83.22;;
81223;SDS011;70698;44.402;18.522;2024-01-30T09:44:11;250.85;;;75.65;;
81223;SDS011;70698;44.402;18.522;2024-01-30T09:46:37;116.07;;;42.47;;
81223;SDS011;70698;44.402;18.522;2024-01-30T09:49:04;193.82;;;61.28;;
81223;SDS011;70698;44.402;18.522;2024-01-30T09:51:32;152.77;;;50.25;;
81223;SDS011;70698;44.402;18.522;2024-01-30T09:53:59;70.28;;;31.33;;
81223;SDS011;70698;44.402;18.522;2024-01-30T09:56:25;37.47;;;18.02;;
81223;SDS011;70698;44.402;18.522;2024-01-30T09:58:51;38.83;;;19.23;;
81223;SDS011;70698;44.402;18.522;2024-01-30T10:01:16;38.88;;;17.50;;
81223;SDS011;70698;44.402;18.522;2024-01-30T10:03:44;194.35;;;61.35;;
81223;SDS011;70698;44.402;18.522;2024-01-30T10:06:10;100.85;;;35.95;;
81223;SDS011;70698;44.402;18.522;2024-01-30T10:08:36;58.42;;;22.63;;
81223;SDS011;70698;44.402;18.522;2024-01-30T10:11:03;165.50;;;55.88;;
81223;SDS011;70698;44.402;18.522;2024-01-30T10:13:29;190.13;;;67.15;;
81223;SDS011;70698;44.402;18.522;2024-01-30T10:15:55;54.90;;;23.20;;
81223;SDS011;70698;44.402;18.522;2024-01-30T10:18:24;58.60;;;25.15;;
81223;SDS011;70698;44.402;18.522;2024-01-30T10:20:51;36.38;;;17.30;;
81223;SDS011;70698;44.402;18.522;2024-01-30T10:23:16;75.00;;;33.78;;
81223;SDS011;70698;44.402;18.522;2024-01-30T10:25:44;34.00;;;16.27;;
81223;SDS011;70698;44.402;18.522;2024-01-30T10:28:10;42.10;;;18.52;;
81223;SDS011;70698;44.402;18.522;2024-01-30T10:30:35;42.20;;;20.15;;
81223;SDS011;70698;44.402;18.522;2024-01-30T10:33:01;49.13;;;23.27;;
81223;SDS011;70698;44.402;18.522;2024-01-30T10:35:27;51.75;;;25.13;;
81223;SDS011;70698;44.402;18.522;2024-01-30T10:37:53;58.15;;;27.70;;
81223;SDS011;70698;44.402;18.522;2024-01-30T10:40:24;33.78;;;17.85;;
81223;SDS011;70698;44.402;18.522;2024-01-30T10:42:56;33.35;;;15.80;;
81223;SDS011;70698;44.402;18.522;2024-01-30T10:47:53;47.55;;;22.15;;
81223;SDS011;70698;44.402;18.522;2024-01-30T10:50:26;37.15;;;18.77;;
81223;SDS011;70698;44.402;18.522;2024-01-30T10:52:52;39.17;;;19.48;;
81223;SDS011;70698;44.402;18.522;2024-01-30T10:55:19;36.00;;;16.87;;
81223;SDS011;70698;44.402;18.522;2024-01-30T10:57:47;40.17;;;20.80;;
81223;SDS011;70698;44.402;18.522;2024-01-30T11:00:14;45.10;;;21.92;;
81223;SDS011;70698;44.402;18.522;2024-01-30T11:02:44;54.80;;;25.70;;
81223;SDS011;70698;44.402;18.522;2024-01-30T11:05:11;50.53;;;24.17;;
81223;SDS011;70698;44.402;18.522;2024-01-30T11:07:38;44.17;;;22.65;;
81223;SDS011;70698;44.402;18.522;2024-01-30T11:10:08;31.98;;;16.10;;
81223;SDS011;70698;44.402;18.522;2024-01-30T11:12:38;33.47;;;17.20;;
81223;SDS011;70698;44.402;18.522;2024-01-30T11:15:09;30.98;;;14.63;;
81223;SDS011;70698;44.402;18.522;2024-01-30T11:20:22;18.77;;;10.05;;
81223;SDS011;70698;44.402;18.522;2024-01-30T11:22:52;28.88;;;14.43;;
81223;SDS011;70698;44.402;18.522;2024-01-30T11:25:20;31.25;;;15.77;;
81223;SDS011;70698;44.402;18.522;2024-01-30T11:27:46;55.17;;;20.92;;
81223;SDS011;70698;44.402;18.522;2024-01-30T11:35:29;41.92;;;17.00;;
81223;SDS011;70698;44.402;18.522;2024-01-30T11:37:56;33.10;;;17.02;;
81223;SDS011;70698;44.402;18.522;2024-01-30T11:40:23;30.83;;;17.20;;
81223;SDS011;70698;44.402;18.522;2024-01-30T11:42:51;24.20;;;14.98;;
81223;SDS011;70698;44.402;18.522;2024-01-30T11:45:17;28.48;;;12.98;;
81223;SDS011;70698;44.402;18.522;2024-01-30T11:47:43;25.70;;;13.18;;
81223;SDS011;70698;44.402;18.522;2024-01-30T11:50:08;39.50;;;22.35;;
81223;SDS011;70698;44.402;18.522;2024-01-30T11:52:36;44.97;;;21.90;;
81223;SDS011;70698;44.402;18.522;2024-01-30T11:55:02;35.05;;;18.40;;
81223;SDS011;70698;44.402;18.522;2024-01-30T11:57:28;34.03;;;17.90;;
81223;SDS011;70698;44.402;18.522;2024-01-30T11:59:53;33.88;;;18.52;;
81223;SDS011;70698;44.402;18.522;2024-01-30T12:02:19;34.95;;;20.13;;
81223;SDS011;70698;44.402;18.522;2024-01-30T12:04:45;33.92;;;19.38;;
81223;SDS011;70698;44.402;18.522;2024-01-30T12:07:11;34.63;;;17.23;;
81223;SDS011;70698;44.402;18.522;2024-01-30T12:09:38;30.83;;;16.98;;
81223;SDS011;70698;44.402;18.522;2024-01-30T12:12:03;32.03;;;16.92;;
81223;SDS011;70698;44.402;18.522;2024-01-30T12:14:30;31.75;;;17.13;;
81223;SDS011;70698;44.402;18.522;2024-01-30T12:16:56;27.25;;;14.80;;
81223;SDS011;70698;44.402;18.522;2024-01-30T12:19:25;22.92;;;13.85;;
81223;SDS011;70698;44.402;18.522;2024-01-30T12:21:54;25.65;;;14.05;;
81223;SDS011;70698;44.402;18.522;2024-01-30T12:24:27;21.77;;;12.35;;
81223;SDS011;70698;44.402;18.522;2024-01-30T12:26:58;25.33;;;14.00;;
81223;SDS011;70698;44.402;18.522;2024-01-30T12:29:24;27.77;;;15.27;;
81223;SDS011;70698;44.402;18.522;2024-01-30T12:31:52;25.90;;;14.25;;
81223;SDS011;70698;44.402;18.522;2024-01-30T12:34:19;20.90;;;12.57;;
81223;SDS011;70698;44.402;18.522;2024-01-30T12:36:46;21.02;;;12.10;;
81223;SDS011;70698;44.402;18.522;2024-01-30T12:39:14;22.73;;;13.07;;
81223;SDS011;70698;44.402;18.522;2024-01-30T12:41:40;23.98;;;13.25;;
81223;SDS011;70698;44.402;18.522;2024-01-30T12:44:06;23.00;;;12.52;;
81223;SDS011;70698;44.402;18.522;2024-01-30T12:46:33;26.58;;;14.85;;
81223;SDS011;70698;44.402;18.522;2024-01-30T12:49:00;21.40;;;12.52;;
81223;SDS011;70698;44.402;18.522;2024-01-30T12:51:26;22.52;;;12.95;;
81223;SDS011;70698;44.402;18.522;2024-01-30T12:53:51;32.67;;;17.33;;
81223;SDS011;70698;44.402;18.522;2024-01-30T12:56:17;26.83;;;15.40;;
81223;SDS011;70698;44.402;18.522;2024-01-30T12:58:42;28.70;;;15.60;;
81223;SDS011;70698;44.402;18.522;2024-01-30T13:01:08;28.95;;;16.13;;
81223;SDS011;70698;44.402;18.522;2024-01-30T13:03:34;28.30;;;15.35;;
81223;SDS011;70698;44.402;18.522;2024-01-30T13:06:00;26.63;;;15.52;;
81223;SDS011;70698;44.402;18.522;2024-01-30T13:08:26;26.88;;;14.98;;
81223;SDS011;70698;44.402;18.522;2024-01-30T13:10:51;35.22;;;18.95;;
81223;SDS011;70698;44.402;18.522;2024-01-30T13:13:18;28.30;;;15.45;;
81223;SDS011;70698;44.402;18.522;2024-01-30T13:15:43;30.83;;;16.52;;
81223;SDS011;70698;44.402;18.522;2024-01-30T13:18:09;29.48;;;17.55;;
81223;SDS011;70698;44.402;18.522;2024-01-30T13:20:35;22.77;;;13.98;;
81223;SDS011;70698;44.402;18.522;2024-01-30T13:23:01;23.05;;;14.40;;
81223;SDS011;70698;44.402;18.522;2024-01-30T13:25:26;26.02;;;15.20;;
81223;SDS011;70698;44.402;18.522;2024-01-30T13:27:52;26.52;;;15.20;;
81223;SDS011;70698;44.402;18.522;2024-01-30T13:30:18;27.50;;;16.27;;
81223;SDS011;70698;44.402;18.522;2024-01-30T13:32:44;25.08;;;14.43;;
81223;SDS011;70698;44.402;18.522;2024-01-30T13:35:10;20.77;;;13.40;;
81223;SDS011;70698;44.402;18.522;2024-01-30T13:37:35;20.17;;;11.35;;
81223;SDS011;70698;44.402;18.522;2024-01-30T13:40:02;20.33;;;12.25;;
81223;SDS011;70698;44.402;18.522;2024-01-30T13:42:32;22.27;;;12.90;;
81223;SDS011;70698;44.402;18.522;2024-01-30T13:44:58;21.90;;;11.25;;
81223;SDS011;70698;44.402;18.522;2024-01-30T13:47:23;22.00;;;13.65;;
81223;SDS011;70698;44.402;18.522;2024-01-30T13:49:49;24.45;;;16.27;;
81223;SDS011;70698;44.402;18.522;2024-01-30T13:52:15;26.67;;;15.18;;
81223;SDS011;70698;44.402;18.522;2024-01-30T13:54:40;16.33;;;10.60;;
81223;SDS011;70698;44.402;18.522;2024-01-30T13:57:06;12.63;;;7.63;;
81223;SDS011;70698;44.402;18.522;2024-01-30T13:59:33;12.90;;;7.50;;
81223;SDS011;70698;44.402;18.522;2024-01-30T14:01:59;14.00;;;9.38;;
81223;SDS011;70698;44.402;18.522;2024-01-30T14:04:25;18.65;;;12.30;;
81223;SDS011;70698;44.402;18.522;2024-01-30T14:06:50;18.25;;;10.60;;